Time;durP1;ratioP1;P1;durP2;ratioP2;P2;SDS_P1;SDS_P2;PMS_P1;PMS_P2;Temp;Humidity;BMP_temperature;BMP_pressure;BME280_temperature;BME280_humidity;BME280_pressure;Samples;Min_cycle;Max_cycle;Signal;HPM_P1;HPM_P2
2022/04/18 00:01:14;;;;;;;14.75;6.80;;;11.60;62.30;;;;;;5067635;28;20020;-63
2022/04/18 00:03:40;;;;;;;14.57;6.72;;;11.50;62.30;;;;;;5042676;28;20021;-64
2022/04/18 00:06:05;;;;;;;12.13;6.32;;;11.50;62.80;;;;;;5058413;28;20036;-65
2022/04/18 00:08:31;;;;;;;13.45;6.60;;;11.50;62.80;;;;;;5048453;28;20029;-63
2022/04/18 00:10:57;;;;;;;14.85;7.47;;;11.40;62.80;;;;;;5043866;28;20075;-64
2022/04/18 00:13:22;;;;;;;14.57;6.80;;;11.40;62.90;;;;;;5021681;28;20086;-66
2022/04/18 00:15:49;;;;;;;14.85;6.78;;;11.40;63.10;;;;;;5030928;28;20037;-62
2022/04/18 00:18:16;;;;;;;15.70;7.18;;;11.40;63.30;;;;;;5020407;28;20120;-63
2022/04/18 00:20:41;;;;;;;16.02;6.82;;;11.30;63.50;;;;;;5033882;28;20072;-64
2022/04/18 00:23:07;;;;;;;13.57;5.97;;;11.30;63.70;;;;;;5042873;28;20127;-61
2022/04/18 00:25:32;;;;;;;17.65;7.85;;;11.20;64.00;;;;;;5031920;28;20469;-63
2022/04/18 00:27:58;;;;;;;14.90;6.78;;;11.20;64.00;;;;;;5034808;28;20140;-63
2022/04/18 00:30:24;;;;;;;14.85;7.10;;;11.20;64.20;;;;;;5048471;28;20064;-62
2022/04/18 00:32:49;;;;;;;10.90;6.05;;;11.20;64.40;;;;;;5041294;28;20053;-62
2022/04/18 00:35:15;;;;;;;16.20;6.60;;;11.10;64.50;;;;;;5049657;28;20120;-66
2022/04/18 00:37:40;;;;;;;14.93;6.30;;;11.10;64.70;;;;;;5050788;28;20021;-63
2022/04/18 00:40:07;;;;;;;13.75;6.45;;;11.10;64.90;;;;;;5049888;28;20096;-64
2022/04/18 00:42:33;;;;;;;13.93;6.75;;;11.10;65.10;;;;;;5045723;28;20477;-63
2022/04/18 00:44:59;;;;;;;16.08;6.65;;;11.00;65.40;;;;;;5037518;28;20061;-64
2022/04/18 00:47:25;;;;;;;14.68;7.20;;;11.00;65.60;;;;;;5048232;28;20060;-64
2022/04/18 00:49:50;;;;;;;16.63;7.43;;;11.00;65.60;;;;;;5050519;28;20098;-62
2022/04/18 00:52:16;;;;;;;14.80;7.00;;;10.90;65.90;;;;;;5048579;28;20031;-62
2022/04/18 00:54:42;;;;;;;15.05;7.50;;;10.90;66.10;;;;;;5049920;28;20067;-62
2022/04/18 00:57:10;;;;;;;16.83;7.82;;;10.80;66.30;;;;;;5047644;28;20071;-63
2022/04/18 00:59:37;;;;;;;15.38;7.22;;;10.80;66.40;;;;;;5048584;28;21616;-65
2022/04/18 01:02:04;;;;;;;16.60;7.38;;;10.80;66.50;;;;;;5051357;28;20104;-63
2022/04/18 01:04:30;;;;;;;15.45;7.40;;;10.80;66.80;;;;;;5048191;28;20052;-63
2022/04/18 01:06:56;;;;;;;15.00;7.15;;;10.70;67.00;;;;;;5050449;28;20453;-63
2022/04/18 01:09:22;;;;;;;15.73;7.50;;;10.70;67.30;;;;;;5046784;28;20029;-64
2022/04/18 01:11:49;;;;;;;16.70;8.07;;;10.70;67.30;;;;;;5036819;28;20021;-65
2022/04/18 01:14:16;;;;;;;14.88;7.60;;;10.60;67.40;;;;;;5055494;28;20143;-65
2022/04/18 01:16:42;;;;;;;15.38;7.80;;;10.60;67.70;;;;;;5037393;28;20442;-68
2022/04/18 01:19:09;;;;;;;15.95;7.35;;;10.60;67.90;;;;;;5052594;28;20013;-65
2022/04/18 01:21:34;;;;;;;16.55;8.23;;;10.50;68.10;;;;;;5054463;28;20028;-69
2022/04/18 01:24:00;;;;;;;17.17;8.00;;;10.50;68.40;;;;;;5053467;28;20020;-67
2022/04/18 01:29:10;;;;;;;18.13;9.05;;;10.50;68.70;;;;;;5053601;28;20040;-65
2022/04/18 01:31:38;;;;;;;15.68;7.80;;;10.50;69.00;;;;;;5037446;28;20034;-64
2022/04/18 01:34:05;;;;;;;14.70;7.47;;;10.40;69.20;;;;;;5040054;28;20074;-67
2022/04/18 01:36:31;;;;;;;15.63;7.72;;;10.40;69.60;;;;;;5050127;28;20525;-65
2022/04/18 01:38:57;;;;;;;15.43;7.68;;;10.40;69.80;;;;;;5042356;28;20028;-64
2022/04/18 01:41:23;;;;;;;16.70;7.75;;;10.30;69.90;;;;;;5040346;28;20026;-64
2022/04/18 01:43:49;;;;;;;15.75;8.57;;;10.30;70.10;;;;;;5040497;28;20029;-64
2022/04/18 01:46:15;;;;;;;14.45;7.80;;;10.30;70.30;;;;;;5059607;28;20062;-64
2022/04/18 01:48:41;;;;;;;19.77;8.90;;;10.20;70.40;;;;;;5053434;28;20023;-64
2022/04/18 01:51:07;;;;;;;19.20;8.80;;;10.20;70.70;;;;;;5064858;28;20422;-64
2022/04/18 01:53:33;;;;;;;19.88;9.02;;;10.20;71.00;;;;;;5073520;28;20094;-66
2022/04/18 01:55:59;;;;;;;19.13;9.18;;;10.20;71.40;;;;;;5074275;28;20082;-64
2022/04/18 01:58:25;;;;;;;17.38;8.25;;;10.10;71.50;;;;;;5051238;28;20423;-66
2022/04/18 02:00:50;;;;;;;14.43;7.57;;;10.20;71.80;;;;;;5047634;28;20531;-62
2022/04/18 02:03:16;;;;;;;17.88;7.68;;;10.10;71.80;;;;;;5038379;28;20028;-63
2022/04/18 02:05:43;;;;;;;14.23;7.63;;;10.10;72.20;;;;;;5036110;28;20403;-64
2022/04/18 02:08:09;;;;;;;15.05;7.60;;;10.00;72.60;;;;;;5056937;28;20381;-64
2022/04/18 02:10:34;;;;;;;15.57;7.43;;;10.00;72.70;;;;;;5057993;28;20021;-62
2022/04/18 02:13:00;;;;;;;15.38;7.60;;;10.00;72.90;;;;;;5056494;28;20341;-64
2022/04/18 02:15:26;;;;;;;16.30;7.82;;;10.00;73.20;;;;;;5064057;28;20048;-65
2022/04/18 02:17:51;;;;;;;16.00;7.85;;;9.90;73.60;;;;;;5069893;28;20479;-62
2022/04/18 02:20:17;;;;;;;15.60;7.35;;;9.90;73.80;;;;;;5053554;28;20029;-63
2022/04/18 02:22:42;;;;;;;18.23;8.13;;;10.00;73.80;;;;;;5067663;28;20021;-62
2022/04/18 02:25:15;;;;;;;18.00;8.63;;;9.90;74.00;;;;;;5068331;28;20021;-62
2022/04/18 02:27:41;;;;;;;15.98;8.20;;;9.90;74.20;;;;;;5052820;28;20724;-62
2022/04/18 02:30:09;;;;;;;14.55;7.95;;;9.90;74.20;;;;;;5061991;28;20060;-64
2022/04/18 02:32:47;;;;;;;13.38;7.00;;;9.90;74.10;;;;;;5065720;28;20029;-64
2022/04/18 02:35:23;;;;;;;16.55;7.75;;;9.90;74.50;;;;;;5048583;28;20431;-66
2022/04/18 02:37:50;;;;;;;14.55;8.20;;;9.90;74.70;;;;;;5043617;28;20064;-66
2022/04/18 02:40:15;;;;;;;15.90;8.07;;;9.90;74.70;;;;;;5046076;28;20070;-63
2022/04/18 02:42:42;;;;;;;15.60;7.30;;;9.90;75.00;;;;;;5052616;28;20420;-64
2022/04/18 02:45:12;;;;;;;15.13;7.60;;;9.80;75.20;;;;;;5068152;28;20384;-63
2022/04/18 02:47:38;;;;;;;14.10;7.60;;;9.80;75.30;;;;;;5061198;28;20021;-65
2022/04/18 02:50:05;;;;;;;16.30;7.70;;;9.80;75.40;;;;;;5053742;28;20021;-64
2022/04/18 02:52:31;;;;;;;16.17;7.22;;;9.80;75.50;;;;;;5051764;28;20029;-64
2022/04/18 02:54:57;;;;;;;14.00;6.97;;;9.80;75.60;;;;;;5054303;28;20475;-64
2022/04/18 02:57:22;;;;;;;15.52;7.88;;;9.80;75.60;;;;;;5069788;28;20137;-64
2022/04/18 02:59:48;;;;;;;15.80;7.13;;;9.80;75.80;;;;;;5053036;28;20037;-63
2022/04/18 03:02:14;;;;;;;12.77;6.47;;;9.80;75.90;;;;;;5051809;28;20036;-62
2022/04/18 03:04:39;;;;;;;11.75;6.63;;;9.80;76.00;;;;;;5042246;28;20029;-65
2022/04/18 03:07:05;;;;;;;14.80;7.45;;;9.80;76.10;;;;;;5067522;28;20036;-64
2022/04/18 03:09:31;;;;;;;11.68;6.72;;;9.70;76.40;;;;;;5052685;28;20025;-65
2022/04/18 03:11:59;;;;;;;12.85;6.95;;;9.70;76.40;;;;;;5050716;28;20465;-66
2022/04/18 03:14:24;;;;;;;14.27;6.53;;;9.70;76.50;;;;;;5059919;28;20071;-62
2022/04/18 03:16:50;;;;;;;15.48;7.55;;;9.70;76.80;;;;;;5051294;28;20020;-62
2022/04/18 03:19:16;;;;;;;15.32;6.18;;;9.60;76.90;;;;;;5057128;28;20025;-65
2022/04/18 03:21:42;;;;;;;14.25;6.53;;;9.70;77.10;;;;;;5052737;28;20029;-63
2022/04/18 03:24:08;;;;;;;12.65;6.47;;;9.60;77.30;;;;;;5051129;28;20341;-64
2022/04/18 03:26:34;;;;;;;12.35;6.38;;;9.60;77.40;;;;;;5045926;28;20056;-65
2022/04/18 03:29:00;;;;;;;12.20;6.53;;;9.60;77.60;;;;;;5053257;28;20058;-64
2022/04/18 03:31:26;;;;;;;12.18;7.03;;;9.60;77.60;;;;;;5047984;28;20457;-65
2022/04/18 03:33:52;;;;;;;12.02;6.40;;;9.60;77.90;;;;;;5046537;28;20453;-64
2022/04/18 03:41:47;;;;;;;15.70;6.88;;;9.60;78.80;;;;;;5043050;28;20108;-63
2022/04/18 03:44:12;;;;;;;13.32;7.10;;;9.50;79.00;;;;;;5065676;28;20104;-63
2022/04/18 03:46:38;;;;;;;14.18;7.05;;;9.50;79.30;;;;;;5049671;28;20025;-63
2022/04/18 03:49:03;;;;;;;14.48;6.78;;;9.50;79.60;;;;;;5060142;28;20132;-65
2022/04/18 03:51:29;;;;;;;12.40;6.20;;;9.50;79.50;;;;;;5047010;28;20050;-62
2022/04/18 03:53:54;;;;;;;11.98;6.35;;;9.50;80.00;;;;;;5057281;28;20025;-65
2022/04/18 03:56:20;;;;;;;10.60;6.32;;;9.50;79.80;;;;;;5049988;28;20037;-62
2022/04/18 03:58:46;;;;;;;12.73;6.57;;;9.50;80.10;;;;;;5058357;28;20078;-63
2022/04/18 04:01:11;;;;;;;13.13;6.10;;;9.50;80.20;;;;;;5054797;28;20039;-62
2022/04/18 04:03:37;;;;;;;11.55;6.00;;;9.50;80.10;;;;;;5050397;28;20446;-61
2022/04/18 04:06:02;;;;;;;13.13;6.43;;;9.50;80.20;;;;;;5041870;28;20025;-65
2022/04/18 04:08:29;;;;;;;12.43;5.88;;;9.50;80.50;;;;;;5055998;28;20372;-63
2022/04/18 04:10:55;;;;;;;11.18;5.68;;;9.40;80.80;;;;;;5040521;28;20464;-64
2022/04/18 04:13:20;;;;;;;12.48;5.80;;;9.40;81.00;;;;;;5057159;28;20035;-64
2022/04/18 04:15:46;;;;;;;12.82;7.03;;;9.40;81.30;;;;;;5056793;28;20040;-62
2022/04/18 04:18:12;;;;;;;13.25;5.82;;;9.40;81.20;;;;;;5073532;28;20028;-62
2022/04/18 04:20:37;;;;;;;12.40;6.68;;;9.40;81.50;;;;;;5056310;28;20017;-66
2022/04/18 04:23:03;;;;;;;12.93;6.28;;;9.40;81.70;;;;;;5072880;28;20028;-66
2022/04/18 04:25:29;;;;;;;11.43;6.47;;;9.30;81.70;;;;;;5067383;28;20029;-65
2022/04/18 04:27:54;;;;;;;15.93;6.57;;;9.40;82.00;;;;;;5053864;28;20079;-64
2022/04/18 04:30:20;;;;;;;12.00;5.88;;;9.30;82.00;;;;;;5056930;28;20047;-61
2022/04/18 04:32:45;;;;;;;12.77;6.75;;;9.30;82.20;;;;;;5061164;28;20028;-64
2022/04/18 04:35:11;;;;;;;10.13;5.80;;;9.30;82.40;;;;;;5062319;28;20040;-63
2022/04/18 04:37:37;;;;;;;13.95;6.55;;;9.30;82.60;;;;;;5074015;28;20444;-63
2022/04/18 04:40:03;;;;;;;11.35;6.30;;;9.30;82.80;;;;;;5058539;28;20032;-64
2022/04/18 04:42:28;;;;;;;10.10;6.00;;;9.20;83.10;;;;;;5053256;28;20038;-63
2022/04/18 04:44:54;;;;;;;13.20;5.72;;;9.20;83.40;;;;;;5069154;28;20438;-63
2022/04/18 04:47:20;;;;;;;13.50;6.25;;;9.20;83.60;;;;;;5044147;28;20071;-65
2022/04/18 04:49:45;;;;;;;10.30;5.50;;;9.20;83.70;;;;;;5059235;28;20051;-64
2022/04/18 04:52:11;;;;;;;10.63;5.57;;;9.10;83.80;;;;;;5061819;28;20021;-66
2022/04/18 04:54:36;;;;;;;9.32;4.78;;;9.20;84.00;;;;;;5065585;28;20040;-63
2022/04/18 04:57:02;;;;;;;8.45;4.80;;;9.20;83.90;;;;;;5051426;28;20033;-64
2022/04/18 04:59:27;;;;;;;11.63;5.35;;;9.20;83.50;;;;;;5059509;28;20033;-66
2022/04/18 05:01:53;;;;;;;9.90;4.90;;;9.30;83.10;;;;;;5060718;28;20100;-64
2022/04/18 05:04:19;;;;;;;13.43;4.95;;;9.30;82.80;;;;;;5057780;28;20075;-65
2022/04/18 05:06:45;;;;;;;10.30;4.95;;;9.40;82.20;;;;;;5058886;28;20099;-66
2022/04/18 05:09:10;;;;;;;8.40;4.82;;;9.40;82.10;;;;;;5054187;28;20025;-66
2022/04/18 05:11:36;;;;;;;10.77;4.85;;;9.50;82.00;;;;;;5053131;28;20117;-66
2022/04/18 05:14:02;;;;;;;8.45;4.70;;;9.50;81.70;;;;;;5067896;28;20028;-61
2022/04/18 05:16:28;;;;;;;9.75;4.40;;;9.60;81.70;;;;;;5066091;28;20078;-63
2022/04/18 05:18:53;;;;;;;8.77;4.60;;;9.70;81.60;;;;;;5053425;28;20025;-66
2022/04/18 05:21:19;;;;;;;8.88;4.90;;;9.70;81.60;;;;;;5054007;28;20040;-63
2022/04/18 05:23:44;;;;;;;11.40;5.28;;;9.80;81.50;;;;;;5051529;28;20017;-64
2022/04/18 05:26:10;;;;;;;11.45;5.10;;;9.80;81.10;;;;;;5049697;28;20048;-65
2022/04/18 05:28:36;;;;;;;10.20;4.93;;;9.90;81.00;;;;;;5051544;28;20358;-64
2022/04/18 05:31:01;;;;;;;7.65;4.40;;;10.00;81.30;;;;;;5050594;28;20032;-63
2022/04/18 05:33:28;;;;;;;9.05;4.95;;;10.00;81.20;;;;;;5044723;28;20028;-65
2022/04/18 05:35:53;;;;;;;10.18;5.03;;;10.00;81.60;;;;;;5055102;28;20040;-63
2022/04/18 05:38:19;;;;;;;6.68;4.30;;;10.10;81.00;;;;;;5053935;28;20017;-61
2022/04/18 05:40:44;;;;;;;10.60;4.47;;;10.20;81.10;;;;;;5052386;28;20375;-65
2022/04/18 05:43:10;;;;;;;7.47;4.20;;;10.20;80.90;;;;;;5053154;28;20032;-64
2022/04/18 05:45:39;;;;;;;7.28;4.50;;;10.30;79.70;;;;;;5050384;28;20405;-65
2022/04/18 05:48:05;;;;;;;8.50;3.95;;;10.30;79.70;;;;;;5039525;28;20372;-63
2022/04/18 05:50:31;;;;;;;9.00;4.60;;;10.30;79.40;;;;;;5053451;28;20104;-65
2022/04/18 05:52:57;;;;;;;7.40;4.20;;;10.40;78.80;;;;;;5050950;28;20104;-65
2022/04/18 05:55:22;;;;;;;8.65;4.45;;;10.50;78.50;;;;;;5053689;28;20102;-62
2022/04/18 05:57:49;;;;;;;10.27;4.85;;;10.60;78.40;;;;;;5052853;28;20096;-63
2022/04/18 06:00:15;;;;;;;10.07;5.00;;;10.70;77.90;;;;;;5053932;28;20020;-64
2022/04/18 06:02:41;;;;;;;7.32;3.90;;;10.80;77.00;;;;;;5046704;28;20393;-66
2022/04/18 06:05:07;;;;;;;8.18;4.20;;;10.90;77.00;;;;;;5041448;28;20037;-63
2022/04/18 06:07:34;;;;;;;8.80;4.57;;;11.00;76.50;;;;;;5041293;28;20064;-62
2022/04/18 06:10:00;;;;;;;9.88;4.18;;;11.00;75.90;;;;;;5045579;28;20044;-64
2022/04/18 06:12:26;;;;;;;6.80;4.20;;;11.00;75.80;;;;;;5067615;28;20495;-63
2022/04/18 06:14:52;;;;;;;7.95;4.18;;;11.20;76.00;;;;;;5057336;28;20388;-62
2022/04/18 06:17:17;;;;;;;7.50;3.88;;;11.30;76.00;;;;;;5053119;28;20016;-65
2022/04/18 06:19:43;;;;;;;9.02;3.85;;;11.50;75.50;;;;;;5059145;28;20048;-63
2022/04/18 06:22:09;;;;;;;6.93;4.15;;;11.60;74.30;;;;;;5054411;28;20418;-64
2022/04/18 06:24:34;;;;;;;8.65;4.35;;;11.60;74.90;;;;;;5066559;28;20531;-65
2022/04/18 06:27:00;;;;;;;7.82;4.10;;;11.70;74.00;;;;;;5069882;28;20093;-66
2022/04/18 06:29:26;;;;;;;6.07;3.70;;;11.80;73.70;;;;;;5048309;28;20165;-65
2022/04/18 06:31:53;;;;;;;6.45;3.60;;;12.00;73.50;;;;;;5066177;28;20095;-63
2022/04/18 06:34:20;;;;;;;7.65;3.65;;;12.10;73.00;;;;;;5063492;28;20020;-64
2022/04/18 06:36:45;;;;;;;6.47;3.85;;;12.30;73.00;;;;;;5042717;28;20489;-62
2022/04/18 06:39:11;;;;;;;5.57;3.53;;;12.40;72.60;;;;;;5065135;28;20132;-64
2022/04/18 06:41:36;;;;;;;6.43;3.50;;;12.70;71.80;;;;;;5053564;28;20342;-64
2022/04/18 06:44:02;;;;;;;5.65;3.50;;;12.90;71.30;;;;;;5061299;28;20024;-65
2022/04/18 06:46:27;;;;;;;10.73;4.10;;;13.00;70.60;;;;;;5057112;28;20083;-64
2022/04/18 06:48:53;;;;;;;6.55;3.75;;;13.30;70.30;;;;;;5063642;28;20028;-64
2022/04/18 06:51:19;;;;;;;6.30;3.83;;;13.60;70.70;;;;;;5064387;28;20025;-64
2022/04/18 06:53:45;;;;;;;8.88;4.18;;;14.00;70.40;;;;;;5056364;28;20020;-66
2022/04/18 06:58:54;;;;;;;7.30;4.35;;;15.10;69.00;;;;;;5055870;28;20171;-64
2022/04/18 07:01:20;;;;;;;8.57;4.00;;;15.80;67.50;;;;;;5055584;28;20091;-63
2022/04/18 07:03:45;;;;;;;7.03;4.25;;;16.50;66.40;;;;;;5048523;28;20021;-62
2022/04/18 07:06:11;;;;;;;8.18;4.22;;;17.30;64.60;;;;;;5060332;28;20020;-63
2022/04/18 07:08:37;;;;;;;7.85;3.95;;;17.90;63.50;;;;;;5056611;28;20473;-66
2022/04/18 07:11:03;;;;;;;7.75;4.53;;;18.40;62.20;;;;;;5063649;28;20017;-63
2022/04/18 07:13:28;;;;;;;8.90;4.07;;;18.60;61.10;;;;;;5064963;28;20027;-63
2022/04/18 07:15:54;;;;;;;10.60;5.07;;;18.60;60.90;;;;;;5070936;28;20036;-65
2022/04/18 07:18:20;;;;;;;7.43;4.28;;;18.60;61.10;;;;;;5058800;28;20021;-62
2022/04/18 07:20:45;;;;;;;8.02;4.20;;;18.40;60.10;;;;;;5057762;28;20053;-64
2022/04/18 07:23:11;;;;;;;6.03;3.70;;;18.10;60.00;;;;;;5067213;28;20029;-66
2022/04/18 07:25:37;;;;;;;6.68;3.40;;;17.80;60.70;;;;;;5060686;28;20020;-66
2022/04/18 07:28:03;;;;;;;5.45;3.63;;;17.80;60.70;;;;;;5063992;28;20037;-66
2022/04/18 07:30:30;;;;;;;6.03;4.22;;;17.60;60.00;;;;;;5053010;28;20033;-65
2022/04/18 07:32:56;;;;;;;6.97;3.70;;;17.60;60.30;;;;;;5068687;28;20024;-66
2022/04/18 07:35:22;;;;;;;7.30;3.70;;;17.60;59.70;;;;;;5055910;28;20082;-66
2022/04/18 07:40:31;;;;;;;6.72;3.83;;;17.60;58.40;;;;;;5065549;28;20410;-66
2022/04/18 07:42:57;;;;;;;9.50;4.20;;;17.60;59.00;;;;;;5071748;28;20024;-67
2022/04/18 07:45:23;;;;;;;5.95;3.97;;;17.60;59.40;;;;;;5055709;28;20027;-67
2022/04/18 07:47:51;;;;;;;6.13;3.25;;;18.00;59.30;;;;;;5071966;28;20066;-64
2022/04/18 07:50:17;;;;;;;6.70;3.50;;;18.10;58.10;;;;;;5061111;28;20013;-64
2022/04/18 07:52:43;;;;;;;7.10;3.65;;;18.10;57.80;;;;;;5066974;28;20371;-66
2022/04/18 07:55:08;;;;;;;4.82;3.13;;;18.40;57.40;;;;;;5055513;28;20087;-63
2022/04/18 07:57:34;;;;;;;6.38;2.95;;;18.90;57.40;;;;;;5067251;28;20021;-65
2022/04/18 07:59:59;;;;;;;5.53;3.20;;;19.40;56.50;;;;;;5060991;28;20380;-66
2022/04/18 08:02:25;;;;;;;5.78;3.20;;;19.80;55.20;;;;;;5048859;28;20358;-64
2022/04/18 08:04:50;;;;;;;4.43;2.85;;;20.20;54.40;;;;;;5055060;28;20472;-63
2022/04/18 08:07:16;;;;;;;4.60;3.03;;;20.50;53.80;;;;;;5068579;28;20032;-65
2022/04/18 08:09:41;;;;;;;5.07;3.42;;;21.30;53.30;;;;;;5054563;28;20090;-63
2022/04/18 08:12:11;;;;;;;4.85;3.17;;;21.80;51.90;;;;;;5048801;28;20032;-64
2022/04/18 08:14:37;;;;;;;4.93;3.65;;;22.30;51.40;;;;;;5049119;28;20538;-66
2022/04/18 08:17:03;;;;;;;6.55;3.58;;;22.80;51.10;;;;;;5047428;28;20108;-63
2022/04/18 08:19:29;;;;;;;4.38;3.28;;;23.00;50.70;;;;;;5065567;28;20364;-63
2022/04/18 08:21:56;;;;;;;5.40;3.13;;;23.00;50.40;;;;;;5063029;28;20051;-66
2022/04/18 08:24:21;;;;;;;6.53;3.30;;;23.20;50.30;;;;;;5066535;28;20471;-65
2022/04/18 08:26:48;;;;;;;5.32;3.35;;;23.20;49.80;;;;;;5044013;28;20045;-62
2022/04/18 08:29:14;;;;;;;6.82;4.18;;;23.00;50.20;;;;;;5065045;28;20027;-65
2022/04/18 08:31:39;;;;;;;7.70;3.65;;;23.00;50.50;;;;;;5055926;28;20104;-62
2022/04/18 08:34:05;;;;;;;6.38;3.60;;;23.10;50.50;;;;;;5042625;28;20091;-64
2022/04/18 08:36:32;;;;;;;3.75;3.05;;;22.90;50.50;;;;;;5064225;28;20461;-64
2022/04/18 08:38:57;;;;;;;6.03;3.80;;;22.70;50.80;;;;;;5061461;28;20070;-62
2022/04/18 08:41:30;;;;;;;4.95;3.42;;;22.40;51.00;;;;;;5065009;28;20029;-62
2022/04/18 08:43:55;;;;;;;5.63;3.95;;;22.70;51.30;;;;;;5048287;28;20028;-63
2022/04/18 08:46:21;;;;;;;6.30;3.47;;;23.40;50.80;;;;;;5059813;28;20029;-63
2022/04/18 08:54:18;;;;;;;6.78;3.47;;;25.90;47.40;;;;;;5053174;28;20468;-65
2022/04/18 08:56:44;;;;;;;5.82;3.40;;;25.70;47.30;;;;;;5061459;28;20107;-64
2022/04/18 08:59:10;;;;;;;5.72;3.38;;;26.10;47.00;;;;;;5045995;28;20152;-63
2022/04/18 09:01:45;;;;;;;6.57;3.30;;;26.20;47.00;;;;;;5051566;28;20028;-63
2022/04/18 09:04:10;;;;;;;5.07;3.20;;;25.80;46.70;;;;;;5042528;28;20032;-64
2022/04/18 09:06:39;;;;;;;5.63;3.33;;;25.40;46.90;;;;;;5068554;28;20403;-66
2022/04/18 09:09:04;;;;;;;4.60;2.92;;;25.20;46.90;;;;;;5058560;28;20043;-63
2022/04/18 09:11:37;;;;;;;6.68;3.50;;;25.50;47.00;;;;;;5053802;28;20068;-65
2022/04/18 09:14:11;;;;;;;6.38;3.20;;;26.20;46.50;;;;;;5058732;28;20032;-63
2022/04/18 09:16:40;;;;;;;5.03;2.80;;;26.80;45.90;;;;;;5058086;28;20087;-64
2022/04/18 09:19:12;;;;;;;3.95;2.70;;;27.40;44.30;;;;;;5048884;28;20017;-63
2022/04/18 09:21:56;;;;;;;4.00;2.90;;;27.70;42.90;;;;;;5051054;28;20013;-64
2022/04/18 09:24:32;;;;;;;6.50;3.20;;;28.00;42.90;;;;;;5060986;28;20058;-65
2022/04/18 09:27:11;;;;;;;4.30;2.92;;;28.50;42.70;;;;;;5057561;28;20037;-67
2022/04/18 09:29:40;;;;;;;2.95;2.60;;;28.80;42.70;;;;;;5052924;28;20056;-62
2022/04/18 09:32:09;;;;;;;7.45;3.40;;;29.10;41.70;;;;;;5042874;28;20021;-65
2022/04/18 09:34:35;;;;;;;4.85;2.88;;;29.50;41.70;;;;;;5035009;28;20037;-64
2022/04/18 09:37:14;;;;;;;4.45;2.88;;;29.80;41.10;;;;;;5067109;28;20015;-65
2022/04/18 09:39:53;;;;;;;7.80;3.17;;;30.20;41.10;;;;;;5049079;28;20029;-65
2022/04/18 09:42:24;;;;;;;5.68;4.03;;;30.40;40.40;;;;;;5061837;28;20037;-65
2022/04/18 09:44:50;;;;;;;4.43;3.40;;;30.00;40.50;;;;;;5059093;28;20021;-66
2022/04/18 09:47:18;;;;;;;8.27;3.35;;;29.80;40.80;;;;;;5057423;28;20108;-64
2022/04/18 09:49:44;;;;;;;4.25;3.03;;;30.10;40.90;;;;;;5054616;28;20063;-67
2022/04/18 09:52:12;;;;;;;3.88;3.00;;;30.00;40.60;;;;;;5050844;28;20025;-66
2022/04/18 09:54:56;;;;;;;4.82;3.33;;;29.40;40.90;;;;;;5054370;28;20421;-66
2022/04/18 09:57:29;;;;;;;7.55;3.63;;;28.80;41.50;;;;;;5054705;28;20026;-65
2022/04/18 09:59:59;;;;;;;4.47;3.10;;;28.80;41.60;;;;;;5074698;28;20503;-64
2022/04/18 10:02:27;;;;;;;6.18;3.60;;;28.70;41.70;;;;;;5045422;28;20034;-64
2022/04/18 10:04:53;;;;;;;6.38;3.75;;;28.80;41.80;;;;;;5034422;28;20045;-64
2022/04/18 10:07:19;;;;;;;5.00;3.42;;;29.00;41.60;;;;;;5044202;28;20032;-64
2022/04/18 10:09:45;;;;;;;6.80;3.60;;;29.20;41.10;;;;;;5067342;28;20024;-63
2022/04/18 10:12:13;;;;;;;7.80;3.60;;;29.20;41.30;;;;;;5048962;28;20033;-66
2022/04/18 10:14:41;;;;;;;8.48;4.22;;;29.10;41.50;;;;;;5057825;28;20353;-63
2022/04/18 10:17:08;;;;;;;5.95;3.33;;;28.60;41.80;;;;;;5056128;28;20059;-65
2022/04/18 10:20:02;;;;;;;3.65;3.10;;;28.30;42.10;;;;;;5060646;28;20024;-64
2022/04/18 10:22:49;;;;;;;5.57;3.13;;;28.00;41.90;;;;;;5038012;28;20013;-64
2022/04/18 10:25:34;;;;;;;6.03;3.33;;;27.50;42.30;;;;;;5039436;28;20078;-63
2022/04/18 10:28:14;;;;;;;5.55;3.70;;;27.20;42.70;;;;;;5063625;28;20095;-65
2022/04/18 10:30:57;;;;;;;8.52;4.85;;;26.60;43.10;;;;;;5059664;28;20548;-63
2022/04/18 10:33:24;;;;;;;14.85;7.82;;;26.50;43.60;;;;;;5056410;28;20033;-64
2022/04/18 10:35:56;;;;;;;5.97;3.40;;;27.10;43.40;;;;;;5047386;28;20037;-64
2022/04/18 10:38:25;;;;;;;6.90;3.75;;;27.80;42.80;;;;;;5052181;28;20032;-66
2022/04/18 10:41:14;;;;;;;5.20;3.38;;;28.60;42.60;;;;;;5046837;28;20033;-65
2022/04/18 10:43:58;;;;;;;8.00;4.35;;;29.40;41.70;;;;;;5061872;28;20049;-64
2022/04/18 10:46:24;;;;;;;5.72;4.50;;;30.10;41.30;;;;;;5054054;28;20055;-65
2022/04/18 10:48:58;;;;;;;5.18;3.88;;;30.50;40.80;;;;;;5055660;28;20017;-64
2022/04/18 10:51:46;;;;;;;7.03;4.00;;;31.10;40.80;;;;;;5038521;28;20037;-63
2022/04/18 10:54:11;;;;;;;6.25;4.18;;;31.30;40.30;;;;;;5059520;28;20472;-63
2022/04/18 10:56:56;;;;;;;5.68;3.50;;;31.50;40.30;;;;;;5060307;28;20025;-64
2022/04/18 10:59:27;;;;;;;8.23;4.10;;;31.60;40.20;;;;;;5045672;28;20036;-64
2022/04/18 11:01:55;;;;;;;6.45;4.55;;;32.40;40.10;;;;;;5041886;28;20079;-64
2022/04/18 11:04:29;;;;;;;6.95;4.15;;;33.10;39.60;;;;;;5046033;28;20094;-64
2022/04/18 11:07:36;;;;;;;6.05;3.65;;;33.70;39.10;;;;;;5032990;28;20526;-67
2022/04/18 11:10:02;;;;;;;5.10;3.40;;;34.10;38.00;;;;;;5038862;28;20025;-66
2022/04/18 11:12:33;;;;;;;4.75;3.63;;;34.30;37.50;;;;;;5044042;28;20031;-65
2022/04/18 11:15:04;;;;;;;7.45;3.78;;;34.50;38.10;;;;;;5040650;28;20038;-64
2022/04/18 11:17:37;;;;;;;3.47;2.95;;;34.70;37.80;;;;;;5056968;28;20456;-64
2022/04/18 11:20:28;;;;;;;5.18;3.30;;;34.60;36.40;;;;;;5039541;28;20029;-65
2022/04/18 11:23:23;;;;;;;4.13;3.40;;;34.20;36.50;;;;;;5046296;28;20094;-62
2022/04/18 11:26:09;;;;;;;5.68;3.47;;;34.00;36.40;;;;;;5052525;28;20048;-63
2022/04/18 11:28:39;;;;;;;6.88;3.80;;;33.90;36.60;;;;;;5046135;28;20485;-65
2022/04/18 11:31:21;;;;;;;5.10;3.15;;;34.20;36.70;;;;;;5046207;28;20032;-64
2022/04/18 11:33:47;;;;;;;3.72;3.05;;;34.80;36.50;;;;;;5052330;28;20029;-66
2022/04/18 11:36:14;;;;;;;4.53;2.78;;;34.90;35.80;;;;;;5044579;28;20384;-63
2022/04/18 11:38:40;;;;;;;6.45;3.20;;;34.80;35.40;;;;;;5064389;28;20028;-64
2022/04/18 11:41:13;;;;;;;3.75;2.97;;;34.60;35.00;;;;;;5052568;28;20388;-63
2022/04/18 11:43:39;;;;;;;3.22;2.80;;;34.60;34.70;;;;;;5043300;28;20922;-64
2022/04/18 11:46:07;;;;;;;4.15;2.83;;;34.60;34.50;;;;;;5053367;28;20028;-64
2022/04/18 11:48:36;;;;;;;5.50;3.20;;;34.60;34.40;;;;;;5057360;28;20016;-64
2022/04/18 11:51:02;;;;;;;5.63;3.20;;;34.70;35.00;;;;;;5052392;28;20024;-65
2022/04/18 11:53:32;;;;;;;4.75;3.05;;;34.60;34.50;;;;;;5046496;28;20530;-63
2022/04/18 11:56:01;;;;;;;5.05;3.28;;;34.50;33.90;;;;;;5051298;28;20040;-63
2022/04/18 11:58:28;;;;;;;5.75;3.40;;;34.40;33.90;;;;;;5049968;28;20039;-64
2022/04/18 12:09:11;;;;;;;3.88;3.13;;;35.30;33.00;;;;;;5034424;28;20028;-64
2022/04/18 12:11:36;;;;;;;4.07;3.67;;;35.40;33.40;;;;;;5056296;28;20012;-65
2022/04/18 12:14:03;;;;;;;5.07;3.38;;;35.30;33.40;;;;;;5054633;28;20034;-63
2022/04/18 12:16:35;;;;;;;5.60;3.78;;;35.00;33.80;;;;;;5053722;28;20048;-66
2022/04/18 12:19:00;;;;;;;4.07;3.05;;;34.60;33.60;;;;;;5047827;28;20028;-64
2022/04/18 12:21:28;;;;;;;5.30;3.38;;;34.20;33.60;;;;;;5056555;28;20393;-66
2022/04/18 12:23:56;;;;;;;4.97;3.58;;;34.20;33.60;;;;;;5059511;28;20023;-66
2022/04/18 12:26:26;;;;;;;4.38;3.33;;;34.30;33.60;;;;;;5042019;28;20087;-64
2022/04/18 12:29:00;;;;;;;3.90;3.50;;;34.40;33.90;;;;;;5055000;28;20036;-63
2022/04/18 12:31:29;;;;;;;5.63;3.95;;;34.30;33.70;;;;;;5046214;28;20041;-64
2022/04/18 12:33:55;;;;;;;6.07;3.42;;;34.30;33.80;;;;;;5050572;28;20419;-63
2022/04/18 12:36:35;;;;;;;3.95;3.20;;;33.90;33.60;;;;;;5053678;28;20028;-66
2022/04/18 12:39:03;;;;;;;4.47;3.20;;;33.30;33.90;;;;;;5044049;28;20034;-65
2022/04/18 12:41:34;;;;;;;4.30;3.38;;;33.10;34.00;;;;;;5042764;28;20013;-63
2022/04/18 12:44:01;;;;;;;4.13;3.17;;;32.70;33.80;;;;;;5055867;28;20117;-63
2022/04/18 12:46:31;;;;;;;5.47;2.83;;;32.50;33.90;;;;;;5054883;28;20035;-64
2022/04/18 12:48:57;;;;;;;4.18;3.15;;;32.40;33.00;;;;;;5051483;28;20413;-65
2022/04/18 12:51:35;;;;;;;3.83;2.83;;;31.90;33.10;;;;;;5059433;28;20142;-64
2022/04/18 12:54:00;;;;;;;3.60;2.70;;;31.30;33.20;;;;;;5056900;28;20051;-63
2022/04/18 12:56:27;;;;;;;3.85;2.83;;;30.80;33.30;;;;;;5055300;28;20523;-64
2022/04/18 12:58:53;;;;;;;3.80;2.65;;;30.40;33.40;;;;;;5045061;28;20024;-64
2022/04/18 13:01:32;;;;;;;7.20;3.45;;;30.20;33.30;;;;;;5053681;28;20086;-62
2022/04/18 13:03:58;;;;;;;4.30;2.95;;;29.80;33.80;;;;;;5055076;28;20055;-62
2022/04/18 13:06:29;;;;;;;4.28;3.10;;;29.50;33.80;;;;;;5055213;28;20017;-66
2022/04/18 13:09:01;;;;;;;4.32;3.03;;;28.90;33.80;;;;;;5045640;28;20017;-63
2022/04/18 13:11:43;;;;;;;4.60;3.00;;;28.30;34.20;;;;;;5046968;28;20036;-62
2022/04/18 13:14:10;;;;;;;;;;;27.80;34.40;;;;;;5055749;28;20063;-62
2022/04/18 13:16:37;;;;;;;6.40;3.60;;;27.40;35.20;;;;;;5045994;28;19912;-63